Terminal Aerodrome Forecast
Issued by NWS

Home | Current Version | Previous Version | Text Only | Print | Product List | Glossary On
Versions: 1 2 3 4 5 6 7 8 9 10 11 12 13 14 15 16 17 18 19 20 21 22 23 24 25 26 27 28 29 30 31 32 33 34 35 36 37 38
000
FTUS43 KMKX 290520
TAFUES
TAF
KUES 290520Z 2906/3006 18005KT P6SM BKN250
     FM290800 18010KT P6SM BKN200
     FM291000 19012G20KT P6SM BKN200 WS020/20045KT
     FM291300 19015G25KT P6SM BKN120 WS020/20050KT
     FM291600 19017G28KT 3SM -RAPL BKN030 WS020/20050KT
      TEMPO 2916/2917 1SM -SNPL BKN015
     FM291700 19020G32KT 2SM -RAPL OVC015
      TEMPO 2917/2918 3/4SM -PL OVC008
     FM291900 22020G33KT P6SM OVC015
     FM292100 23020G31KT P6SM VCSH OVC015
     FM300000 26015KT P6SM BKN035
     FM300400 30013KT P6SM SCT040=

USA.gov is the U.S. government's official web portal to all federal, state and local government web resources and services.